createdAt,value
2023-01-04T00:00:54.289Z,101647.91
2023-01-04T00:03:26.858Z,101656.44
2023-01-04T00:05:56.833Z,101639.31
2023-01-04T00:08:26.511Z,101627.53
2023-01-04T00:10:56.109Z,101639.78
2023-01-04T00:13:25.879Z,101621.25
2023-01-04T00:15:55.670Z,101617.56
2023-01-04T00:18:27.994Z,101596.97
2023-01-04T00:20:57.593Z,101600.31
2023-01-04T00:23:27.219Z,101597.75
2023-01-04T00:25:56.811Z,101562.91
2023-01-04T00:28:26.437Z,101583.16
2023-01-04T00:30:56.043Z,101579.38
2023-01-04T00:33:28.248Z,101568.69
2023-01-04T00:35:57.909Z,101559.19
2023-01-04T00:38:27.513Z,101564.75
2023-01-04T00:40:57.090Z,101534.44
2023-01-04T00:43:26.703Z,101565.75
2023-01-04T00:45:56.969Z,101552.41
2023-01-04T00:48:29.275Z,101555.81
2023-01-04T00:51:00.003Z,101526.34
2023-01-04T00:53:29.663Z,101517.56
2023-01-04T00:56:02.823Z,101530.84
2023-01-04T00:58:32.436Z,101527.13
2023-01-04T01:01:07.910Z,101515.31
2023-01-04T01:03:40.559Z,101510.97
2023-01-04T01:06:12.369Z,101510.13
2023-01-04T01:08:42.460Z,101515.69
2023-01-04T01:11:13.316Z,101522.09
2023-01-04T01:13:43.007Z,101494.00
2023-01-04T01:16:15.539Z,101493.94
2023-01-04T01:18:48.521Z,101452.47
2023-01-04T01:21:19.883Z,101489.13
2023-01-04T01:23:50.165Z,101487.19
2023-01-04T01:26:23.197Z,101470.31
2023-01-04T01:28:52.851Z,101479.00
2023-01-04T01:31:24.513Z,101485.00
2023-01-04T01:33:58.877Z,101482.47
2023-01-04T01:36:29.506Z,101458.72
2023-01-04T01:38:59.196Z,101438.41
2023-01-04T01:41:31.116Z,101464.47
2023-01-04T01:44:02.878Z,101458.94
2023-01-04T01:46:38.370Z,101422.25
2023-01-04T01:49:17.863Z,101438.94
2023-01-04T01:51:47.794Z,101419.50
2023-01-04T01:54:21.714Z,101428.91
2023-01-04T01:56:53.973Z,101436.72
2023-01-04T01:59:24.871Z,101434.84
2023-01-04T02:01:54.625Z,101414.84
2023-01-04T02:04:27.403Z,101403.22
2023-01-04T02:07:00.173Z,101383.66
2023-01-04T02:09:29.865Z,101396.56
2023-01-04T02:11:59.503Z,101387.94
2023-01-04T02:14:32.259Z,101347.63
2023-01-04T02:17:10.077Z,101372.69
2023-01-04T02:20:06.495Z,101357.28
2023-01-04T02:23:11.227Z,101270.72
2023-01-04T02:26:16.217Z,101349.06
2023-01-04T02:29:14.732Z,101352.75
2023-01-04T02:31:52.490Z,101329.13
2023-01-04T02:34:31.517Z,101329.84
2023-01-04T02:37:06.200Z,101307.66
2023-01-04T02:39:48.840Z,101286.91
2023-01-04T02:42:25.609Z,101301.09
2023-01-04T02:44:59.609Z,101254.13
2023-01-04T02:47:48.535Z,101286.22
2023-01-04T02:50:36.412Z,101278.47
2023-01-04T02:53:11.509Z,101275.88
2023-01-04T02:55:53.293Z,101276.72
2023-01-04T02:58:38.283Z,101257.44
2023-01-04T03:01:30.958Z,101263.94
2023-01-04T03:04:32.582Z,101222.78
2023-01-04T03:07:10.908Z,101234.66
2023-01-04T03:09:45.265Z,101244.59
2023-01-04T03:12:36.112Z,101244.63
2023-01-04T03:15:13.442Z,101213.00
2023-01-04T03:17:49.506Z,101213.25
2023-01-04T03:20:23.664Z,101176.44
2023-01-04T03:23:10.563Z,101182.97
2023-01-04T03:25:56.983Z,101210.41
2023-01-04T03:28:41.918Z,101154.88
2023-01-04T03:31:30.315Z,101189.59
2023-01-04T03:34:12.908Z,101177.03
2023-01-04T03:36:57.890Z,101160.00
2023-01-04T03:39:50.046Z,101172.41
2023-01-04T03:42:36.730Z,101160.59
2023-01-04T03:45:28.845Z,101148.75
2023-01-04T03:48:15.717Z,101143.31
2023-01-04T03:50:50.253Z,101149.63
2023-01-04T03:53:23.337Z,101124.88
2023-01-04T03:55:55.385Z,101124.09
2023-01-04T03:58:25.745Z,101116.50
2023-01-04T04:01:03.803Z,101098.84
2023-01-04T04:03:46.700Z,101103.94
2023-01-04T04:06:28.977Z,101093.78
2023-01-04T04:09:01.341Z,101087.19
2023-01-04T04:11:33.688Z,101094.03
2023-01-04T04:14:03.360Z,101070.47
2023-01-04T04:16:33.068Z,101084.53
2023-01-04T04:19:08.173Z,101088.34
2023-01-04T04:21:38.934Z,101086.59
2023-01-04T04:24:18.682Z,101054.19
2023-01-04T04:26:48.293Z,101078.75
2023-01-04T04:29:17.955Z,101074.13
2023-01-04T04:31:47.671Z,101051.56
2023-01-04T04:34:17.389Z,101063.75
2023-01-04T04:36:47.085Z,101051.97
2023-01-04T04:39:19.393Z,101027.91
2023-01-04T04:41:46.469Z,101066.13
2023-01-04T04:44:19.199Z,101048.31
2023-01-04T04:46:49.967Z,101018.94
2023-01-04T04:49:20.789Z,101001.81
2023-01-04T04:51:50.801Z,101015.47
2023-01-04T04:54:24.846Z,101024.34
2023-01-04T04:56:54.611Z,100998.63
2023-01-04T04:59:24.350Z,100984.69
2023-01-04T05:01:54.141Z,100934.06
2023-01-04T05:04:23.986Z,100987.63
2023-01-04T05:06:53.817Z,100952.38
2023-01-04T05:09:26.041Z,100985.34
2023-01-04T05:12:08.133Z,100999.75
2023-01-04T05:14:37.774Z,100993.06
2023-01-04T05:17:07.407Z,100983.84
2023-01-04T05:19:39.910Z,100978.56
2023-01-04T05:22:09.582Z,100968.38
2023-01-04T05:24:41.788Z,100960.94
2023-01-04T05:27:11.432Z,100971.22
2023-01-04T05:29:53.738Z,100961.25
2023-01-04T05:32:23.354Z,100914.47
2023-01-04T05:34:52.963Z,100938.91
2023-01-04T05:37:22.596Z,100937.44
2023-01-04T05:39:54.807Z,100948.63
2023-01-04T05:42:30.078Z,100918.84
2023-01-04T05:45:01.300Z,100917.81
2023-01-04T05:47:31.268Z,100922.16
2023-01-04T05:50:00.918Z,100903.44
2023-01-04T05:52:31.063Z,100916.34
2023-01-04T05:55:03.408Z,100921.88
2023-01-04T05:57:33.262Z,100927.75
2023-01-04T06:00:02.882Z,100887.41
2023-01-04T06:02:42.584Z,100893.34
2023-01-04T06:05:13.042Z,100886.78
2023-01-04T06:07:43.468Z,100901.44
2023-01-04T06:10:16.354Z,100877.88
2023-01-04T06:12:45.974Z,100870.84
2023-01-04T06:15:16.055Z,100862.75
2023-01-04T06:17:48.837Z,100846.50
2023-01-04T06:20:18.602Z,100876.00
2023-01-04T06:22:48.226Z,100841.94
2023-01-04T06:25:20.841Z,100856.34
2023-01-04T06:27:50.455Z,100824.25
2023-01-04T06:30:20.337Z,100841.56
2023-01-04T06:32:49.996Z,100833.94
2023-01-04T06:35:19.830Z,100813.19
2023-01-04T06:37:49.481Z,100833.31
2023-01-04T06:40:21.770Z,100834.47
2023-01-04T06:42:51.383Z,100789.69
2023-01-04T06:45:21.000Z,100809.59
2023-01-04T06:47:50.695Z,100841.25
2023-01-04T06:50:20.379Z,100831.28
2023-01-04T06:52:50.025Z,100842.50
2023-01-04T06:55:22.225Z,100827.03
2023-01-04T06:57:56.323Z,100831.13
2023-01-04T07:00:29.302Z,100809.91
2023-01-04T07:03:13.706Z,100793.59
2023-01-04T07:05:44.930Z,100814.53
2023-01-04T07:08:15.684Z,100814.59
2023-01-04T07:10:48.040Z,100825.00
2023-01-04T07:13:18.337Z,100794.16
2023-01-04T07:15:48.070Z,100816.44
2023-01-04T07:18:17.765Z,100799.34
2023-01-04T07:20:47.388Z,100802.56
2023-01-04T07:23:16.977Z,100783.00
2023-01-04T07:25:49.250Z,100802.34
2023-01-04T07:28:39.554Z,100766.22
2023-01-04T07:31:10.702Z,100761.88
2023-01-04T07:33:40.631Z,100783.66
2023-01-04T07:36:11.391Z,100779.44
2023-01-04T07:38:41.105Z,100800.84
2023-01-04T07:41:15.447Z,100804.16
2023-01-04T07:43:48.568Z,100800.91
2023-01-04T07:46:19.906Z,100804.22
2023-01-04T07:48:49.621Z,100818.75
2023-01-04T07:51:19.371Z,100793.97
2023-01-04T07:53:49.064Z,100803.47
2023-01-04T07:56:21.640Z,100820.00
2023-01-04T07:58:51.402Z,100776.63
2023-01-04T08:01:22.015Z,100828.41
2023-01-04T08:03:51.877Z,100790.13
2023-01-04T08:06:24.070Z,100824.50
2023-01-04T08:08:53.770Z,100821.03
2023-01-04T08:11:31.045Z,100826.28
2023-01-04T08:14:00.771Z,100775.09
2023-01-04T08:16:34.082Z,100820.16
2023-01-04T08:19:07.513Z,100801.09
2023-01-04T08:21:38.927Z,100835.63
2023-01-04T08:24:09.630Z,100828.84
2023-01-04T08:26:42.078Z,100806.38
2023-01-04T08:29:12.485Z,100808.88
2023-01-04T08:31:43.054Z,100820.97
2023-01-04T08:34:13.199Z,100802.03
2023-01-04T08:36:52.285Z,100791.53
2023-01-04T08:39:22.981Z,100801.34
2023-01-04T08:41:58.745Z,100808.19
2023-01-04T08:44:31.493Z,100781.28
2023-01-04T08:47:01.577Z,100790.66
2023-01-04T08:49:31.370Z,100803.47
2023-01-04T08:52:01.116Z,100802.22
2023-01-04T08:54:30.883Z,100810.69
2023-01-04T08:57:03.162Z,100788.50
2023-01-04T08:59:34.864Z,100815.78
2023-01-04T09:02:06.010Z,100805.75
2023-01-04T09:04:36.235Z,100769.47
2023-01-04T09:07:06.989Z,100814.13
2023-01-04T09:09:36.696Z,100800.81
2023-01-04T09:12:09.183Z,100783.72
2023-01-04T09:14:39.122Z,100798.63
2023-01-04T09:17:09.046Z,100788.31
2023-01-04T09:19:38.781Z,100765.13
2023-01-04T09:22:12.375Z,100782.38
2023-01-04T09:24:42.175Z,100767.13
2023-01-04T09:27:17.914Z,100767.22
2023-01-04T09:29:47.573Z,100756.31
2023-01-04T09:32:17.345Z,100744.13
2023-01-04T09:34:47.651Z,100757.31
2023-01-04T09:37:17.393Z,100748.94
2023-01-04T09:39:47.653Z,100750.56
2023-01-04T09:42:36.807Z,100729.28
2023-01-04T09:45:25.868Z,100722.38
2023-01-04T09:48:00.130Z,100725.88
2023-01-04T09:50:34.380Z,100720.09
2023-01-04T09:53:08.898Z,100737.31
2023-01-04T09:55:48.217Z,100740.91
2023-01-04T09:58:29.987Z,100729.84
2023-01-04T10:01:06.383Z,100721.88
2023-01-04T10:03:40.594Z,100722.59
2023-01-04T10:06:15.834Z,100708.25
2023-01-04T10:08:47.153Z,100744.16
2023-01-04T10:11:32.486Z,100737.47
2023-01-04T10:14:20.155Z,100729.88
2023-01-04T10:17:35.605Z,100699.84
2023-01-04T10:23:39.072Z,100701.22
2023-01-04T10:26:15.352Z,100709.16
2023-01-04T10:29:04.957Z,100687.81
2023-01-04T10:31:46.837Z,100695.50
2023-01-04T10:34:26.515Z,100692.97
2023-01-04T10:37:00.901Z,100706.38
2023-01-04T10:39:35.947Z,100687.53
2023-01-04T10:42:15.474Z,100648.00
2023-01-04T10:44:53.243Z,100706.47
2023-01-04T10:47:35.465Z,100667.94
2023-01-04T10:50:14.014Z,100658.84
2023-01-04T10:52:50.965Z,100683.53
2023-01-04T10:55:30.411Z,100644.94
2023-01-04T10:58:05.623Z,100670.78
2023-01-04T11:00:41.451Z,100650.25
2023-01-04T11:03:20.727Z,100645.59
2023-01-04T11:05:57.620Z,100647.63
2023-01-04T11:08:32.825Z,100652.16
2023-01-04T11:11:12.252Z,100663.22
2023-01-04T11:13:41.976Z,100649.59
2023-01-04T11:16:11.833Z,100655.63
2023-01-04T11:18:46.659Z,100636.03
2023-01-04T11:21:20.554Z,100639.31
2023-01-04T11:23:51.315Z,100630.94
2023-01-04T11:26:27.686Z,100646.16
2023-01-04T11:29:03.324Z,100645.50
2023-01-04T11:31:47.060Z,100641.97
2023-01-04T11:34:19.532Z,100637.72
2023-01-04T11:36:50.164Z,100636.25
2023-01-04T11:39:22.346Z,100630.41
2023-01-04T11:42:03.215Z,100600.38
2023-01-04T11:44:34.729Z,100631.25
2023-01-04T11:47:17.837Z,100623.47
2023-01-04T11:49:50.994Z,100622.72
2023-01-04T11:52:37.900Z,100612.44
2023-01-04T11:55:19.877Z,100581.28
2023-01-04T11:57:49.555Z,100603.75
2023-01-04T12:00:20.250Z,100610.84
2023-01-04T12:03:01.939Z,100581.97
2023-01-04T12:05:35.181Z,100596.59
2023-01-04T12:08:04.979Z,100580.34
2023-01-04T12:10:34.888Z,100573.94
2023-01-04T12:13:05.597Z,100578.94
2023-01-04T12:15:41.724Z,100529.03
2023-01-04T12:18:18.351Z,100592.03
2023-01-04T12:20:50.911Z,100575.84
2023-01-04T12:23:23.274Z,100569.81
2023-01-04T12:25:55.036Z,100554.38
2023-01-04T12:28:44.275Z,100557.72
2023-01-04T12:31:35.412Z,100540.69
2023-01-04T12:34:44.887Z,100564.63
2023-01-04T12:37:49.653Z,100556.97
2023-01-04T12:40:49.793Z,100552.63
2023-01-04T12:43:27.373Z,100557.81
2023-01-04T12:46:49.177Z,100554.41
2023-01-04T12:49:55.951Z,100537.31
2023-01-04T12:56:00.052Z,100547.72
2023-01-04T12:59:26.287Z,100540.78
2023-01-04T13:02:19.216Z,100537.56
2023-01-04T13:04:59.077Z,100534.25
2023-01-04T13:07:48.316Z,100450.16
2023-01-04T13:10:24.441Z,100537.78
2023-01-04T13:13:04.636Z,100518.03
2023-01-04T13:15:55.062Z,100519.81
2023-01-04T13:18:37.107Z,100527.69
2023-01-04T13:21:14.307Z,100525.22
2023-01-04T13:23:53.245Z,100520.88
2023-01-04T13:26:37.231Z,100518.31
2023-01-04T13:29:14.711Z,100523.56
2023-01-04T13:32:00.191Z,100536.41
2023-01-04T13:34:33.887Z,100502.28
2023-01-04T13:37:09.782Z,100497.09
2023-01-04T13:39:44.216Z,100496.31
2023-01-04T13:42:20.648Z,100518.44
2023-01-04T13:45:31.763Z,100494.00
2023-01-04T13:48:05.352Z,100500.78
2023-01-04T13:50:40.165Z,100473.41
2023-01-04T13:53:22.124Z,100458.88
2023-01-04T13:55:58.403Z,100478.63
2023-01-04T13:58:30.830Z,100467.59
2023-01-04T14:01:03.611Z,100429.09
2023-01-04T14:03:37.897Z,100408.53
2023-01-04T14:06:17.127Z,100473.13
2023-01-04T14:08:52.808Z,100474.00
2023-01-04T14:11:41.111Z,100476.69
2023-01-04T14:14:38.097Z,100452.56
2023-01-04T14:17:17.531Z,100468.09
2023-01-04T14:19:50.837Z,100461.41
2023-01-04T14:22:38.988Z,100453.72
2023-01-04T14:25:58.951Z,100455.44
2023-01-04T14:28:43.184Z,100471.69
2023-01-04T14:31:25.240Z,100474.09
2023-01-04T14:33:58.114Z,100481.81
2023-01-04T14:36:31.229Z,100469.88
2023-01-04T14:39:13.134Z,100470.78
2023-01-04T14:41:46.037Z,100449.38
2023-01-04T14:44:20.885Z,100451.19
2023-01-04T14:46:53.700Z,100464.91
2023-01-04T14:49:26.776Z,100458.88
2023-01-04T14:51:58.494Z,100461.38
2023-01-04T14:54:29.677Z,100478.44
2023-01-04T14:57:02.028Z,100481.94
2023-01-04T14:59:34.362Z,100496.50
2023-01-04T15:02:10.232Z,100458.75
2023-01-04T15:04:40.140Z,100498.16
2023-01-04T15:07:10.072Z,100494.78
2023-01-04T15:09:39.821Z,100490.47
2023-01-04T15:12:10.675Z,100436.50
2023-01-04T15:14:42.905Z,100476.03
2023-01-04T15:17:14.566Z,100498.38
2023-01-04T15:19:44.332Z,100481.13
2023-01-04T15:22:14.089Z,100499.97
2023-01-04T15:24:43.778Z,100474.34
2023-01-04T15:27:13.490Z,100494.06
2023-01-04T15:29:45.843Z,100473.66
2023-01-04T15:32:15.640Z,100493.38
2023-01-04T15:34:47.113Z,100459.03
2023-01-04T15:37:24.058Z,100476.25
2023-01-04T15:40:01.652Z,100464.22
2023-01-04T15:42:45.776Z,100490.81
2023-01-04T15:45:23.911Z,100486.63
2023-01-04T15:47:53.979Z,100478.94
2023-01-04T15:50:24.226Z,100458.44
2023-01-04T15:52:54.963Z,100482.41
2023-01-04T15:55:24.678Z,100489.22
2023-01-04T15:57:54.436Z,100480.59
2023-01-04T16:00:27.823Z,100439.47
2023-01-04T16:02:57.575Z,100454.88
2023-01-04T16:05:27.301Z,100461.78
2023-01-04T16:07:57.123Z,100483.09
2023-01-04T16:10:29.250Z,100404.34
2023-01-04T16:13:00.963Z,100442.09
2023-01-04T16:15:33.171Z,100465.16
2023-01-04T16:18:02.970Z,100473.69
2023-01-04T16:20:32.756Z,100467.81
2023-01-04T16:23:02.680Z,100454.16
2023-01-04T16:25:33.368Z,100450.78
2023-01-04T16:28:03.135Z,100461.13
2023-01-04T16:30:37.168Z,100460.16
2023-01-04T16:33:06.934Z,100460.09
2023-01-04T16:35:40.394Z,100435.41
2023-01-04T16:38:10.490Z,100445.53
2023-01-04T16:40:40.245Z,100445.53
2023-01-04T16:43:10.018Z,100446.50
2023-01-04T16:45:43.458Z,100426.81
2023-01-04T16:48:18.563Z,100437.06
2023-01-04T16:50:48.643Z,100452.34
2023-01-04T16:53:18.429Z,100433.53
2023-01-04T16:55:50.526Z,100414.75
2023-01-04T16:58:21.241Z,100428.66
2023-01-04T17:00:55.601Z,100386.63
2023-01-04T17:03:25.491Z,100421.75
2023-01-04T17:05:55.307Z,100425.09
2023-01-04T17:08:27.166Z,100442.31
2023-01-04T17:11:27.709Z,100454.38
2023-01-04T17:13:56.265Z,100437.28
2023-01-04T17:16:35.038Z,100398.72
2023-01-04T17:19:08.469Z,100411.44
2023-01-04T17:21:41.499Z,100452.66
2023-01-04T17:24:15.015Z,100438.06
2023-01-04T17:26:48.866Z,100453.38
2023-01-04T17:29:20.650Z,100446.59
2023-01-04T17:31:54.010Z,100438.94
2023-01-04T17:34:27.464Z,100467.19
2023-01-04T17:36:57.105Z,100449.22
2023-01-04T17:39:31.755Z,100403.94
2023-01-04T17:42:03.533Z,100445.97
2023-01-04T17:44:33.403Z,100438.22
2023-01-04T17:47:08.965Z,100461.44
2023-01-04T17:49:38.707Z,100458.91
2023-01-04T17:52:11.723Z,100397.16
2023-01-04T17:54:43.438Z,100464.00
2023-01-04T17:57:13.130Z,100444.34
2023-01-04T17:59:42.878Z,100440.09
2023-01-04T18:02:19.131Z,100427.91
2023-01-04T18:04:49.915Z,100435.56
2023-01-04T18:07:24.795Z,100418.38
2023-01-04T18:09:58.516Z,100434.66
2023-01-04T18:12:34.228Z,100458.59
2023-01-04T18:15:06.483Z,100448.31
2023-01-04T18:17:38.862Z,100440.66
2023-01-04T18:20:12.312Z,100413.28
2023-01-04T18:22:45.478Z,100433.09
2023-01-04T18:25:16.470Z,100412.47
2023-01-04T18:27:46.243Z,100441.50
2023-01-04T18:30:16.933Z,100400.34
2023-01-04T18:32:50.276Z,100426.06
2023-01-04T18:35:20.265Z,100405.44
2023-01-04T18:37:50.024Z,100435.53
2023-01-04T18:40:20.145Z,100438.06
2023-01-04T18:42:50.508Z,100421.00
2023-01-04T18:45:20.761Z,100420.97
2023-01-04T18:47:53.122Z,100408.97
2023-01-04T18:50:22.851Z,100413.16
2023-01-04T18:52:52.559Z,100435.53
2023-01-04T18:55:22.281Z,100442.41
2023-01-04T18:57:52.019Z,100426.22
2023-01-04T19:00:29.743Z,100419.34
2023-01-04T19:03:02.513Z,100430.53
2023-01-04T19:05:33.328Z,100414.25
2023-01-04T19:08:04.340Z,100412.63
2023-01-04T19:10:35.132Z,100419.41
2023-01-04T19:13:05.811Z,100410.84
2023-01-04T19:15:35.529Z,100412.44
2023-01-04T19:18:09.018Z,100396.09
2023-01-04T19:20:40.932Z,100418.31
2023-01-04T19:23:10.930Z,100410.66
2023-01-04T19:25:42.368Z,100405.44
2023-01-04T19:28:14.922Z,100414.00
2023-01-04T19:30:46.013Z,100413.09
2023-01-04T19:33:23.099Z,100413.91
2023-01-04T19:35:53.011Z,100425.03
2023-01-04T19:38:23.686Z,100421.63
2023-01-04T19:40:58.145Z,100412.22
2023-01-04T19:43:28.029Z,100415.53
2023-01-04T19:45:58.773Z,100410.44
2023-01-04T19:48:33.826Z,100398.44
2023-01-04T19:51:08.334Z,100406.00
2023-01-04T19:53:38.859Z,100406.16
2023-01-04T19:56:09.886Z,100407.00
2023-01-04T19:58:40.407Z,100406.13
2023-01-04T20:01:10.352Z,100401.81
2023-01-04T20:03:43.163Z,100397.66
2023-01-04T20:06:15.593Z,100415.56
2023-01-04T20:08:45.842Z,100417.38
2023-01-04T20:11:16.071Z,100425.94
2023-01-04T20:13:45.778Z,100431.03
2023-01-04T20:16:16.619Z,100434.44
2023-01-04T20:18:52.072Z,100438.78
2023-01-04T20:21:21.928Z,100426.78
2023-01-04T20:23:51.765Z,100419.03
2023-01-04T20:26:21.970Z,100442.25
2023-01-04T20:28:52.141Z,100444.78
2023-01-04T20:31:29.363Z,100440.56
2023-01-04T20:34:02.803Z,100434.56
2023-01-04T20:36:33.894Z,100436.31
2023-01-04T20:39:05.254Z,100444.00
2023-01-04T20:41:35.126Z,100457.69
2023-01-04T20:44:02.575Z,100445.69
2023-01-04T20:46:34.423Z,100451.69
2023-01-04T20:49:06.740Z,100461.91
2023-01-04T20:51:36.408Z,100451.66
2023-01-04T20:54:06.115Z,100466.28
2023-01-04T20:56:37.666Z,100450.03
2023-01-04T20:59:08.063Z,100468.81
2023-01-04T21:01:38.104Z,100432.81
2023-01-04T21:04:10.663Z,100456.69
2023-01-04T21:06:40.392Z,100477.13
2023-01-04T21:09:10.126Z,100467.88
2023-01-04T21:11:39.877Z,100452.47
2023-01-04T21:14:11.129Z,100465.31
2023-01-04T21:16:43.187Z,100456.63
2023-01-04T21:19:22.299Z,100433.59
2023-01-04T21:21:54.148Z,100454.06
2023-01-04T21:24:24.050Z,100430.06
2023-01-04T21:26:53.860Z,100451.38
2023-01-04T21:29:25.469Z,100463.44
2023-01-04T21:31:55.202Z,100454.06
2023-01-04T21:34:28.140Z,100464.38
2023-01-04T21:36:57.788Z,100477.09
2023-01-04T21:39:27.547Z,100467.00
2023-01-04T21:41:59.455Z,100448.97
2023-01-04T21:44:31.673Z,100473.81
2023-01-04T21:47:02.453Z,100470.38
2023-01-04T21:49:35.136Z,100484.06
2023-01-04T21:52:05.059Z,100475.44
2023-01-04T21:54:34.920Z,100452.31
2023-01-04T21:57:08.016Z,100460.94
2023-01-04T21:59:41.813Z,100455.78
2023-01-04T22:02:15.911Z,100460.75
2023-01-04T22:04:49.470Z,100445.13
2023-01-04T22:07:19.218Z,100476.47
2023-01-04T22:09:53.803Z,100501.88
2023-01-04T22:12:26.823Z,100493.25
2023-01-04T22:14:56.630Z,100499.16
2023-01-04T22:17:27.394Z,100475.13
2023-01-04T22:19:59.682Z,100492.31
2023-01-04T22:22:31.589Z,100480.22
2023-01-04T22:25:03.291Z,100481.97
2023-01-04T22:27:33.269Z,100445.84
2023-01-04T22:30:03.024Z,100491.38
2023-01-04T22:32:32.805Z,100487.19
2023-01-04T22:35:06.563Z,100482.06
2023-01-04T22:37:36.246Z,100518.94
2023-01-04T22:40:07.053Z,100487.47
2023-01-04T22:42:36.792Z,100500.00
2023-01-04T22:45:13.307Z,100524.81
2023-01-04T22:47:43.457Z,100523.88
2023-01-04T22:50:16.832Z,100534.78
2023-01-04T22:52:50.940Z,100528.50
2023-01-04T22:55:22.118Z,100495.75
2023-01-04T22:57:51.857Z,100488.59
2023-01-04T23:00:21.578Z,100512.72
2023-01-04T23:02:51.808Z,100507.41
2023-01-04T23:05:24.241Z,100517.53
2023-01-04T23:07:53.930Z,100531.00
2023-01-04T23:10:24.477Z,100520.91
2023-01-04T23:12:55.226Z,100503.84
2023-01-04T23:15:24.853Z,100530.66
2023-01-04T23:17:55.541Z,100523.97
2023-01-04T23:20:27.883Z,100526.59
2023-01-04T23:22:57.574Z,100529.13
2023-01-04T23:25:27.546Z,100538.56
2023-01-04T23:27:57.260Z,100533.47
2023-01-04T23:30:27.276Z,100531.03
2023-01-04T23:32:58.365Z,100537.13
2023-01-04T23:35:31.860Z,100522.53
2023-01-04T23:38:01.527Z,100531.84
2023-01-04T23:40:31.447Z,100543.16
2023-01-04T23:43:01.206Z,100535.34
2023-01-04T23:45:30.988Z,100533.75
2023-01-04T23:48:04.465Z,100537.09
2023-01-04T23:50:36.721Z,100537.94
2023-01-04T23:53:06.350Z,100542.94
2023-01-04T23:55:36.062Z,100544.75
2023-01-04T23:58:05.765Z,100551.50
